sensor_id;sensor_type;location;lat;lon;timestamp;P1;durP1;ratioP1;P2;durP2;ratioP2
45322;SDS011;31382;50.200;8.674;2022-09-02T00:04:27;4.72;;;0.35;;
45322;SDS011;31382;50.200;8.674;2022-09-02T00:09:29;4.32;;;0.40;;
45322;SDS011;31382;50.200;8.674;2022-09-02T00:14:33;1.02;;;0.20;;
45322;SDS011;31382;50.200;8.674;2022-09-02T00:19:36;0.52;;;0.30;;
45322;SDS011;31382;50.200;8.674;2022-09-02T00:24:38;0.85;;;0.20;;
45322;SDS011;31382;50.200;8.674;2022-09-02T00:29:40;2.58;;;0.30;;
45322;SDS011;31382;50.200;8.674;2022-09-02T00:34:42;1.05;;;0.40;;
45322;SDS011;31382;50.200;8.674;2022-09-02T00:39:44;1.20;;;0.40;;
45322;SDS011;31382;50.200;8.674;2022-09-02T00:44:45;0.40;;;0.20;;
45322;SDS011;31382;50.200;8.674;2022-09-02T00:49:49;1.60;;;0.20;;
45322;SDS011;31382;50.200;8.674;2022-09-02T00:54:56;1.95;;;0.25;;
45322;SDS011;31382;50.200;8.674;2022-09-02T01:00:13;1.08;;;0.28;;
45322;SDS011;31382;50.200;8.674;2022-09-02T01:05:18;1.65;;;0.30;;
45322;SDS011;31382;50.200;8.674;2022-09-02T01:10:23;1.75;;;0.28;;
45322;SDS011;31382;50.200;8.674;2022-09-02T01:15:30;5.70;;;0.40;;
45322;SDS011;31382;50.200;8.674;2022-09-02T01:20:33;0.55;;;0.30;;
45322;SDS011;31382;50.200;8.674;2022-09-02T01:25:35;2.03;;;0.20;;
45322;SDS011;31382;50.200;8.674;2022-09-02T01:30:37;1.75;;;0.20;;
45322;SDS011;31382;50.200;8.674;2022-09-02T01:35:42;2.42;;;0.30;;
45322;SDS011;31382;50.200;8.674;2022-09-02T01:40:44;1.92;;;0.20;;
45322;SDS011;31382;50.200;8.674;2022-09-02T01:45:48;0.65;;;0.25;;
45322;SDS011;31382;50.200;8.674;2022-09-02T01:50:54;4.70;;;0.30;;
45322;SDS011;31382;50.200;8.674;2022-09-02T01:55:58;1.73;;;0.30;;
45322;SDS011;31382;50.200;8.674;2022-09-02T02:01:00;0.25;;;0.20;;
45322;SDS011;31382;50.200;8.674;2022-09-02T02:06:09;2.13;;;0.30;;
45322;SDS011;31382;50.200;8.674;2022-09-02T02:11:20;0.63;;;0.20;;
45322;SDS011;31382;50.200;8.674;2022-09-02T02:16:25;0.45;;;0.30;;
45322;SDS011;31382;50.200;8.674;2022-09-02T02:21:27;0.82;;;0.30;;
45322;SDS011;31382;50.200;8.674;2022-09-02T02:26:28;0.60;;;0.30;;
45322;SDS011;31382;50.200;8.674;2022-09-02T02:31:30;0.50;;;0.30;;
45322;SDS011;31382;50.200;8.674;2022-09-02T02:36:33;0.93;;;0.40;;
45322;SDS011;31382;50.200;8.674;2022-09-02T02:41:35;0.50;;;0.30;;
45322;SDS011;31382;50.200;8.674;2022-09-02T02:46:37;2.25;;;0.30;;
45322;SDS011;31382;50.200;8.674;2022-09-02T02:51:39;1.25;;;0.30;;
45322;SDS011;31382;50.200;8.674;2022-09-02T02:56:42;1.88;;;0.30;;
45322;SDS011;31382;50.200;8.674;2022-09-02T03:01:44;1.80;;;0.25;;
45322;SDS011;31382;50.200;8.674;2022-09-02T03:06:46;1.55;;;0.95;;
45322;SDS011;31382;50.200;8.674;2022-09-02T03:11:48;0.57;;;0.32;;
45322;SDS011;31382;50.200;8.674;2022-09-02T03:16:49;0.28;;;0.25;;
45322;SDS011;31382;50.200;8.674;2022-09-02T03:21:51;4.05;;;0.30;;
45322;SDS011;31382;50.200;8.674;2022-09-02T03:26:53;0.95;;;0.20;;
45322;SDS011;31382;50.200;8.674;2022-09-02T03:31:55;0.73;;;0.22;;
45322;SDS011;31382;50.200;8.674;2022-09-02T03:36:58;0.85;;;0.20;;
45322;SDS011;31382;50.200;8.674;2022-09-02T03:42:00;0.63;;;0.30;;
45322;SDS011;31382;50.200;8.674;2022-09-02T03:47:01;0.75;;;0.20;;
45322;SDS011;31382;50.200;8.674;2022-09-02T03:52:03;0.47;;;0.25;;
45322;SDS011;31382;50.200;8.674;2022-09-02T03:57:05;1.25;;;0.22;;
45322;SDS011;31382;50.200;8.674;2022-09-02T04:02:07;3.63;;;0.30;;
45322;SDS011;31382;50.200;8.674;2022-09-02T04:07:09;1.80;;;0.40;;
45322;SDS011;31382;50.200;8.674;2022-09-02T04:12:11;0.70;;;0.30;;
45322;SDS011;31382;50.200;8.674;2022-09-02T04:17:13;2.05;;;0.30;;
45322;SDS011;31382;50.200;8.674;2022-09-02T04:22:14;3.20;;;0.35;;
45322;SDS011;31382;50.200;8.674;2022-09-02T04:27:16;0.77;;;0.30;;
45322;SDS011;31382;50.200;8.674;2022-09-02T04:32:19;2.58;;;0.30;;
45322;SDS011;31382;50.200;8.674;2022-09-02T04:37:22;0.93;;;0.30;;
45322;SDS011;31382;50.200;8.674;2022-09-02T04:42:24;2.90;;;0.30;;
45322;SDS011;31382;50.200;8.674;2022-09-02T04:47:26;1.15;;;0.30;;
45322;SDS011;31382;50.200;8.674;2022-09-02T04:52:28;0.50;;;0.30;;
45322;SDS011;31382;50.200;8.674;2022-09-02T04:57:30;0.95;;;0.30;;
45322;SDS011;31382;50.200;8.674;2022-09-02T05:02:32;1.08;;;0.45;;
45322;SDS011;31382;50.200;8.674;2022-09-02T05:07:35;0.65;;;0.20;;
45322;SDS011;31382;50.200;8.674;2022-09-02T05:12:38;4.57;;;0.30;;
45322;SDS011;31382;50.200;8.674;2022-09-02T05:17:40;6.10;;;1.08;;
45322;SDS011;31382;50.200;8.674;2022-09-02T05:22:42;2.53;;;0.40;;
45322;SDS011;31382;50.200;8.674;2022-09-02T05:27:44;1.20;;;0.30;;
45322;SDS011;31382;50.200;8.674;2022-09-02T05:33:15;0.57;;;0.40;;
45322;SDS011;31382;50.200;8.674;2022-09-02T05:38:18;3.22;;;0.40;;
45322;SDS011;31382;50.200;8.674;2022-09-02T05:43:20;2.03;;;0.40;;
45322;SDS011;31382;50.200;8.674;2022-09-02T05:48:26;3.22;;;0.30;;
45322;SDS011;31382;50.200;8.674;2022-09-02T05:53:53;1.37;;;0.63;;
45322;SDS011;31382;50.200;8.674;2022-09-02T05:58:56;0.50;;;0.20;;
45322;SDS011;31382;50.200;8.674;2022-09-02T06:04:03;2.90;;;0.40;;
45322;SDS011;31382;50.200;8.674;2022-09-02T06:09:14;1.77;;;0.20;;
45322;SDS011;31382;50.200;8.674;2022-09-02T06:14:21;0.60;;;0.30;;
45322;SDS011;31382;50.200;8.674;2022-09-02T06:19:39;7.10;;;0.50;;
45322;SDS011;31382;50.200;8.674;2022-09-02T06:24:43;4.93;;;0.40;;
45322;SDS011;31382;50.200;8.674;2022-09-02T06:29:54;0.85;;;0.25;;
45322;SDS011;31382;50.200;8.674;2022-09-02T06:35:03;2.33;;;0.30;;
45322;SDS011;31382;50.200;8.674;2022-09-02T06:40:13;2.78;;;0.20;;
45322;SDS011;31382;50.200;8.674;2022-09-02T06:45:59;0.50;;;0.20;;
45322;SDS011;31382;50.200;8.674;2022-09-02T06:51:39;0.50;;;0.30;;
45322;SDS011;31382;50.200;8.674;2022-09-02T06:56:43;1.42;;;0.40;;
45322;SDS011;31382;50.200;8.674;2022-09-02T07:01:50;0.28;;;0.17;;
45322;SDS011;31382;50.200;8.674;2022-09-02T07:06:54;5.30;;;0.20;;
45322;SDS011;31382;50.200;8.674;2022-09-02T07:11:58;1.25;;;0.20;;
45322;SDS011;31382;50.200;8.674;2022-09-02T07:17:05;2.38;;;0.20;;
45322;SDS011;31382;50.200;8.674;2022-09-02T07:22:27;1.00;;;0.28;;
45322;SDS011;31382;50.200;8.674;2022-09-02T07:27:29;0.73;;;0.40;;
45322;SDS011;31382;50.200;8.674;2022-09-02T07:32:31;2.00;;;0.20;;
45322;SDS011;31382;50.200;8.674;2022-09-02T07:37:37;0.43;;;0.25;;
45322;SDS011;31382;50.200;8.674;2022-09-02T07:43:07;1.35;;;0.30;;
45322;SDS011;31382;50.200;8.674;2022-09-02T07:48:52;0.77;;;0.30;;
45322;SDS011;31382;50.200;8.674;2022-09-02T07:53:56;3.03;;;0.20;;
45322;SDS011;31382;50.200;8.674;2022-09-02T07:59:46;0.80;;;0.30;;
45322;SDS011;31382;50.200;8.674;2022-09-02T08:04:48;2.70;;;0.20;;
45322;SDS011;31382;50.200;8.674;2022-09-02T08:09:51;1.75;;;0.30;;
45322;SDS011;31382;50.200;8.674;2022-09-02T08:15:04;3.42;;;0.30;;
45322;SDS011;31382;50.200;8.674;2022-09-02T08:20:59;0.82;;;0.30;;
45322;SDS011;31382;50.200;8.674;2022-09-02T08:26:03;1.73;;;0.20;;
45322;SDS011;31382;50.200;8.674;2022-09-02T08:31:35;0.20;;;0.20;;
45322;SDS011;31382;50.200;8.674;2022-09-02T08:36:39;1.98;;;0.22;;
45322;SDS011;31382;50.200;8.674;2022-09-02T08:42:05;4.18;;;0.30;;
45322;SDS011;31382;50.200;8.674;2022-09-02T08:47:28;4.97;;;0.20;;
45322;SDS011;31382;50.200;8.674;2022-09-02T08:57:40;0.35;;;0.20;;
45322;SDS011;31382;50.200;8.674;2022-09-02T09:08:18;1.40;;;0.20;;
45322;SDS011;31382;50.200;8.674;2022-09-02T09:13:57;1.35;;;0.30;;
45322;SDS011;31382;50.200;8.674;2022-09-02T09:25:08;1.13;;;0.30;;
45322;SDS011;31382;50.200;8.674;2022-09-02T09:30:26;1.08;;;0.20;;
45322;SDS011;31382;50.200;8.674;2022-09-02T09:35:53;1.30;;;0.30;;
45322;SDS011;31382;50.200;8.674;2022-09-02T09:41:20;0.77;;;0.15;;
45322;SDS011;31382;50.200;8.674;2022-09-02T09:46:39;1.55;;;0.20;;
45322;SDS011;31382;50.200;8.674;2022-09-02T09:56:51;1.67;;;0.20;;
45322;SDS011;31382;50.200;8.674;2022-09-02T10:02:18;0.40;;;0.20;;
45322;SDS011;31382;50.200;8.674;2022-09-02T10:07:38;1.58;;;0.20;;
45322;SDS011;31382;50.200;8.674;2022-09-02T10:12:46;0.30;;;0.10;;
45322;SDS011;31382;50.200;8.674;2022-09-02T10:23:11;0.25;;;0.10;;
45322;SDS011;31382;50.200;8.674;2022-09-02T10:38:47;0.55;;;0.10;;
45322;SDS011;31382;50.200;8.674;2022-09-02T10:44:16;2.63;;;0.20;;
45322;SDS011;31382;50.200;8.674;2022-09-02T10:55:12;1.85;;;0.20;;
45322;SDS011;31382;50.200;8.674;2022-09-02T11:00:47;0.40;;;0.15;;
45322;SDS011;31382;50.200;8.674;2022-09-02T11:05:57;2.20;;;0.20;;
45322;SDS011;31382;50.200;8.674;2022-09-02T11:12:03;0.30;;;0.10;;
45322;SDS011;31382;50.200;8.674;2022-09-02T11:17:43;0.40;;;0.20;;
45322;SDS011;31382;50.200;8.674;2022-09-02T11:23:37;0.47;;;0.22;;
45322;SDS011;31382;50.200;8.674;2022-09-02T11:35:17;1.98;;;0.20;;
45322;SDS011;31382;50.200;8.674;2022-09-02T11:52:25;0.20;;;0.10;;
45322;SDS011;31382;50.200;8.674;2022-09-02T11:57:41;0.93;;;0.20;;
45322;SDS011;31382;50.200;8.674;2022-09-02T12:03:30;0.82;;;0.20;;
45322;SDS011;31382;50.200;8.674;2022-09-02T12:09:03;1.50;;;0.32;;
45322;SDS011;31382;50.200;8.674;2022-09-02T12:33:09;0.43;;;0.20;;
45322;SDS011;31382;50.200;8.674;2022-09-02T12:44:43;1.95;;;0.30;;
45322;SDS011;31382;50.200;8.674;2022-09-02T12:56:05;2.53;;;0.20;;
45322;SDS011;31382;50.200;8.674;2022-09-02T13:01:24;1.40;;;0.10;;
45322;SDS011;31382;50.200;8.674;2022-09-02T13:13:03;0.98;;;0.17;;
45322;SDS011;31382;50.200;8.674;2022-09-02T13:30:51;6.35;;;0.20;;
45322;SDS011;31382;50.200;8.674;2022-09-02T13:36:26;0.25;;;0.20;;
45322;SDS011;31382;50.200;8.674;2022-09-02T13:41:47;0.30;;;0.10;;
45322;SDS011;31382;50.200;8.674;2022-09-02T13:47:12;0.47;;;0.20;;
45322;SDS011;31382;50.200;8.674;2022-09-02T14:03:34;1.75;;;0.10;;
45322;SDS011;31382;50.200;8.674;2022-09-02T14:08:40;1.85;;;0.20;;
45322;SDS011;31382;50.200;8.674;2022-09-02T14:14:36;0.20;;;0.10;;
45322;SDS011;31382;50.200;8.674;2022-09-02T14:19:43;1.83;;;0.17;;
45322;SDS011;31382;50.200;8.674;2022-09-02T14:25:56;0.60;;;0.10;;
45322;SDS011;31382;50.200;8.674;2022-09-02T14:31:31;1.33;;;0.10;;
45322;SDS011;31382;50.200;8.674;2022-09-02T14:38:21;3.15;;;0.10;;
45322;SDS011;31382;50.200;8.674;2022-09-02T14:44:31;0.57;;;0.10;;
45322;SDS011;31382;50.200;8.674;2022-09-02T14:50:30;1.00;;;0.20;;
45322;SDS011;31382;50.200;8.674;2022-09-02T15:04:09;0.40;;;0.20;;
45322;SDS011;31382;50.200;8.674;2022-09-02T15:22:54;3.33;;;0.10;;
45322;SDS011;31382;50.200;8.674;2022-09-02T15:27:56;0.30;;;0.20;;
45322;SDS011;31382;50.200;8.674;2022-09-02T15:33:01;0.40;;;0.13;;
45322;SDS011;31382;50.200;8.674;2022-09-02T15:38:06;0.40;;;0.10;;
45322;SDS011;31382;50.200;8.674;2022-09-02T15:43:08;0.95;;;0.10;;
45322;SDS011;31382;50.200;8.674;2022-09-02T15:48:10;2.38;;;0.40;;
45322;SDS011;31382;50.200;8.674;2022-09-02T15:53:13;0.50;;;0.30;;
45322;SDS011;31382;50.200;8.674;2022-09-02T15:58:15;0.70;;;0.20;;
45322;SDS011;31382;50.200;8.674;2022-09-02T16:03:17;0.32;;;0.10;;
45322;SDS011;31382;50.200;8.674;2022-09-02T16:08:19;2.47;;;0.68;;
45322;SDS011;31382;50.200;8.674;2022-09-02T16:13:20;0.43;;;0.20;;
45322;SDS011;31382;50.200;8.674;2022-09-02T16:18:22;2.03;;;0.15;;
45322;SDS011;31382;50.200;8.674;2022-09-02T16:23:24;1.15;;;0.20;;
45322;SDS011;31382;50.200;8.674;2022-09-02T16:28:26;0.20;;;0.10;;
45322;SDS011;31382;50.200;8.674;2022-09-02T16:33:28;1.88;;;0.10;;
45322;SDS011;31382;50.200;8.674;2022-09-02T16:38:29;0.47;;;0.10;;
45322;SDS011;31382;50.200;8.674;2022-09-02T16:43:32;1.77;;;0.17;;
45322;SDS011;31382;50.200;8.674;2022-09-02T16:48:37;1.38;;;0.28;;
45322;SDS011;31382;50.200;8.674;2022-09-02T16:53:40;0.43;;;0.20;;
45322;SDS011;31382;50.200;8.674;2022-09-02T16:58:42;0.85;;;0.20;;
45322;SDS011;31382;50.200;8.674;2022-09-02T17:03:44;0.65;;;0.20;;
45322;SDS011;31382;50.200;8.674;2022-09-02T17:08:47;0.38;;;0.20;;
45322;SDS011;31382;50.200;8.674;2022-09-02T17:13:54;0.85;;;0.20;;
45322;SDS011;31382;50.200;8.674;2022-09-02T17:18:57;1.30;;;0.15;;
45322;SDS011;31382;50.200;8.674;2022-09-02T17:24:00;0.30;;;0.30;;
45322;SDS011;31382;50.200;8.674;2022-09-02T17:29:06;0.55;;;0.20;;
45322;SDS011;31382;50.200;8.674;2022-09-02T17:34:21;0.40;;;0.20;;
45322;SDS011;31382;50.200;8.674;2022-09-02T17:39:23;0.40;;;0.20;;
45322;SDS011;31382;50.200;8.674;2022-09-02T17:44:28;0.17;;;0.10;;
45322;SDS011;31382;50.200;8.674;2022-09-02T17:49:33;1.65;;;0.30;;
45322;SDS011;31382;50.200;8.674;2022-09-02T17:54:37;1.73;;;0.10;;
45322;SDS011;31382;50.200;8.674;2022-09-02T17:59:44;3.15;;;0.30;;
45322;SDS011;31382;50.200;8.674;2022-09-02T18:10:42;3.03;;;0.20;;
45322;SDS011;31382;50.200;8.674;2022-09-02T18:21:28;2.38;;;0.38;;
45322;SDS011;31382;50.200;8.674;2022-09-02T18:37:22;0.43;;;0.20;;
45322;SDS011;31382;50.200;8.674;2022-09-02T18:42:53;2.78;;;0.73;;
45322;SDS011;31382;50.200;8.674;2022-09-02T18:48:07;2.47;;;0.30;;
45322;SDS011;31382;50.200;8.674;2022-09-02T18:58:21;2.05;;;0.30;;
45322;SDS011;31382;50.200;8.674;2022-09-02T19:03:36;2.88;;;0.30;;
45322;SDS011;31382;50.200;8.674;2022-09-02T19:08:38;2.28;;;0.50;;
45322;SDS011;31382;50.200;8.674;2022-09-02T19:13:42;5.15;;;0.50;;
45322;SDS011;31382;50.200;8.674;2022-09-02T19:18:52;1.58;;;0.30;;
45322;SDS011;31382;50.200;8.674;2022-09-02T19:23:54;2.22;;;0.47;;
45322;SDS011;31382;50.200;8.674;2022-09-02T19:28:56;0.63;;;0.30;;
45322;SDS011;31382;50.200;8.674;2022-09-02T19:33:58;3.47;;;0.45;;
45322;SDS011;31382;50.200;8.674;2022-09-02T19:39:02;2.15;;;0.73;;
45322;SDS011;31382;50.200;8.674;2022-09-02T19:44:03;0.82;;;0.50;;
45322;SDS011;31382;50.200;8.674;2022-09-02T19:49:05;1.27;;;0.60;;
45322;SDS011;31382;50.200;8.674;2022-09-02T19:54:07;2.40;;;1.20;;
45322;SDS011;31382;50.200;8.674;2022-09-02T19:59:12;3.95;;;1.50;;
45322;SDS011;31382;50.200;8.674;2022-09-02T20:04:14;7.45;;;2.95;;
45322;SDS011;31382;50.200;8.674;2022-09-02T20:09:16;7.43;;;1.88;;
45322;SDS011;31382;50.200;8.674;2022-09-02T20:14:17;3.03;;;1.20;;
45322;SDS011;31382;50.200;8.674;2022-09-02T20:19:19;1.58;;;0.73;;
45322;SDS011;31382;50.200;8.674;2022-09-02T20:24:23;0.80;;;0.40;;
45322;SDS011;31382;50.200;8.674;2022-09-02T20:29:34;0.77;;;0.40;;
45322;SDS011;31382;50.200;8.674;2022-09-02T20:40:31;0.80;;;0.25;;
45322;SDS011;31382;50.200;8.674;2022-09-02T20:45:38;0.93;;;0.20;;
45322;SDS011;31382;50.200;8.674;2022-09-02T20:56:19;0.63;;;0.25;;
45322;SDS011;31382;50.200;8.674;2022-09-02T21:01:27;4.93;;;0.20;;
45322;SDS011;31382;50.200;8.674;2022-09-02T21:06:42;0.85;;;0.20;;
45322;SDS011;31382;50.200;8.674;2022-09-02T21:11:53;2.13;;;0.30;;
45322;SDS011;31382;50.200;8.674;2022-09-02T21:17:11;3.97;;;0.30;;
45322;SDS011;31382;50.200;8.674;2022-09-02T21:22:26;2.28;;;0.20;;
45322;SDS011;31382;50.200;8.674;2022-09-02T21:27:32;0.75;;;0.20;;
45322;SDS011;31382;50.200;8.674;2022-09-02T21:32:41;0.85;;;0.20;;
45322;SDS011;31382;50.200;8.674;2022-09-02T21:37:56;1.77;;;0.13;;
45322;SDS011;31382;50.200;8.674;2022-09-02T21:43:12;0.60;;;0.20;;
45322;SDS011;31382;50.200;8.674;2022-09-02T21:48:29;1.85;;;0.20;;
45322;SDS011;31382;50.200;8.674;2022-09-02T21:59:28;1.13;;;0.30;;
45322;SDS011;31382;50.200;8.674;2022-09-02T22:04:45;0.75;;;0.20;;
45322;SDS011;31382;50.200;8.674;2022-09-02T22:10:08;0.70;;;0.20;;
45322;SDS011;31382;50.200;8.674;2022-09-02T22:15:23;1.30;;;0.20;;
45322;SDS011;31382;50.200;8.674;2022-09-02T22:20:34;1.38;;;0.30;;
45322;SDS011;31382;50.200;8.674;2022-09-02T22:25:40;1.07;;;0.10;;
45322;SDS011;31382;50.200;8.674;2022-09-02T22:30:44;0.30;;;0.20;;
45322;SDS011;31382;50.200;8.674;2022-09-02T22:41:16;0.30;;;0.20;;
45322;SDS011;31382;50.200;8.674;2022-09-02T22:46:46;0.73;;;0.20;;
45322;SDS011;31382;50.200;8.674;2022-09-02T22:52:26;0.73;;;0.28;;
45322;SDS011;31382;50.200;8.674;2022-09-02T22:57:59;0.82;;;0.30;;
45322;SDS011;31382;50.200;8.674;2022-09-02T23:08:35;0.32;;;0.20;;
45322;SDS011;31382;50.200;8.674;2022-09-02T23:13:52;0.45;;;0.20;;
45322;SDS011;31382;50.200;8.674;2022-09-02T23:19:14;0.22;;;0.20;;
45322;SDS011;31382;50.200;8.674;2022-09-02T23:24:40;1.75;;;0.20;;
45322;SDS011;31382;50.200;8.674;2022-09-02T23:29:56;0.28;;;0.20;;
45322;SDS011;31382;50.200;8.674;2022-09-02T23:45:31;1.05;;;0.20;;
